sensor_id;sensor_type;location;lat;lon;timestamp;pressure;altitude;pressure_sealevel;temperature;humidity
33404;BME280;19751;40.274;18.268;2023-11-19T00:01:23;101559.03;;;12.48;49.47
33404;BME280;19751;40.274;18.268;2023-11-19T00:03:48;101544.06;;;12.45;48.88
33404;BME280;19751;40.274;18.268;2023-11-19T00:06:14;101554.88;;;12.45;48.50
33404;BME280;19751;40.274;18.268;2023-11-19T00:08:40;101545.25;;;12.42;48.42
33404;BME280;19751;40.274;18.268;2023-11-19T00:11:06;101549.63;;;12.43;48.17
33404;BME280;19751;40.274;18.268;2023-11-19T00:13:31;101563.97;;;12.44;47.67
33404;BME280;19751;40.274;18.268;2023-11-19T00:16:00;101544.59;;;12.40;46.93
33404;BME280;19751;40.274;18.268;2023-11-19T00:18:25;101534.81;;;12.39;47.21
33404;BME280;19751;40.274;18.268;2023-11-19T00:20:51;101535.66;;;12.40;47.33
33404;BME280;19751;40.274;18.268;2023-11-19T00:23:17;101532.09;;;12.39;47.48
33404;BME280;19751;40.274;18.268;2023-11-19T00:25:42;101546.63;;;12.38;47.24
33404;BME280;19751;40.274;18.268;2023-11-19T00:28:08;101543.94;;;12.38;47.13
33404;BME280;19751;40.274;18.268;2023-11-19T00:30:33;101543.94;;;12.38;47.05
33404;BME280;19751;40.274;18.268;2023-11-19T00:32:59;101559.97;;;12.40;46.34
33404;BME280;19751;40.274;18.268;2023-11-19T00:35:27;101566.22;;;12.40;46.41
33404;BME280;19751;40.274;18.268;2023-11-19T00:37:53;101568.72;;;12.42;46.03
33404;BME280;19751;40.274;18.268;2023-11-19T00:40:24;101570.41;;;12.43;46.16
33404;BME280;19751;40.274;18.268;2023-11-19T00:42:50;101556.25;;;12.41;46.05
33404;BME280;19751;40.274;18.268;2023-11-19T00:45:15;101557.44;;;12.38;46.23
33404;BME280;19751;40.274;18.268;2023-11-19T00:47:46;101552.03;;;12.38;46.01
33404;BME280;19751;40.274;18.268;2023-11-19T00:50:12;101546.63;;;12.38;45.85
33404;BME280;19751;40.274;18.268;2023-11-19T00:52:38;101569.91;;;12.39;45.72
33404;BME280;19751;40.274;18.268;2023-11-19T00:55:04;101558.97;;;12.41;45.84
33404;BME280;19751;40.274;18.268;2023-11-19T00:57:31;101550.00;;;12.40;45.78
33404;BME280;19751;40.274;18.268;2023-11-19T01:00:04;101555.22;;;12.42;46.34
33404;BME280;19751;40.274;18.268;2023-11-19T01:02:36;101553.34;;;12.42;47.06
33404;BME280;19751;40.274;18.268;2023-11-19T01:05:08;101559.97;;;12.40;47.20
33404;BME280;19751;40.274;18.268;2023-11-19T01:07:34;101558.13;;;12.40;46.94
33404;BME280;19751;40.274;18.268;2023-11-19T01:10:00;101566.22;;;12.40;46.68
33404;BME280;19751;40.274;18.268;2023-11-19T01:12:25;101564.53;;;12.39;46.34
33404;BME280;19751;40.274;18.268;2023-11-19T01:14:58;101564.34;;;12.41;46.09
33404;BME280;19751;40.274;18.268;2023-11-19T01:17:24;101578.91;;;12.40;46.15
33404;BME280;19751;40.274;18.268;2023-11-19T01:19:49;101580.91;;;12.38;46.10
33404;BME280;19751;40.274;18.268;2023-11-19T01:22:18;101573.66;;;12.38;46.00
33404;BME280;19751;40.274;18.268;2023-11-19T01:24:44;101574.13;;;12.42;45.69
33404;BME280;19751;40.274;18.268;2023-11-19T01:27:09;101560.81;;;12.40;45.59
33404;BME280;19751;40.274;18.268;2023-11-19T01:29:35;101555.56;;;12.39;45.38
33404;BME280;19751;40.274;18.268;2023-11-19T01:32:01;101545.16;;;12.36;45.52
33404;BME280;19751;40.274;18.268;2023-11-19T01:34:29;101559.19;;;12.31;45.68
33404;BME280;19751;40.274;18.268;2023-11-19T01:36:54;101555.53;;;12.24;45.37
33404;BME280;19751;40.274;18.268;2023-11-19T01:39:20;101554.22;;;12.20;44.84
33404;BME280;19751;40.274;18.268;2023-11-19T01:41:46;101547.13;;;12.19;44.81
33404;BME280;19751;40.274;18.268;2023-11-19T01:44:12;101544.25;;;12.21;44.95
33404;BME280;19751;40.274;18.268;2023-11-19T01:46:41;101556.72;;;12.22;44.95
33404;BME280;19751;40.274;18.268;2023-11-19T01:49:11;101553.19;;;12.21;45.22
33404;BME280;19751;40.274;18.268;2023-11-19T01:51:41;101542.59;;;12.19;45.86
33404;BME280;19751;40.274;18.268;2023-11-19T01:54:08;101553.53;;;12.18;45.34
33404;BME280;19751;40.274;18.268;2023-11-19T01:56:34;101548.16;;;12.18;45.99
33404;BME280;19751;40.274;18.268;2023-11-19T01:59:00;101551.88;;;12.17;45.80
33404;BME280;19751;40.274;18.268;2023-11-19T02:01:26;101551.69;;;12.18;45.92
33404;BME280;19751;40.274;18.268;2023-11-19T02:03:55;101554.22;;;12.20;45.57
33404;BME280;19751;40.274;18.268;2023-11-19T02:06:21;101550.84;;;12.18;45.64
33404;BME280;19751;40.274;18.268;2023-11-19T02:08:47;101552.53;;;12.19;45.44
33404;BME280;19751;40.274;18.268;2023-11-19T02:11:13;101557.75;;;12.21;45.46
33404;BME280;19751;40.274;18.268;2023-11-19T02:13:40;101547.78;;;12.21;45.81
33404;BME280;19751;40.274;18.268;2023-11-19T02:16:09;101553.19;;;12.21;46.13
33404;BME280;19751;40.274;18.268;2023-11-19T02:18:44;101562.31;;;12.20;46.49
33404;BME280;19751;40.274;18.268;2023-11-19T02:21:10;101552.53;;;12.19;46.89
33404;BME280;19751;40.274;18.268;2023-11-19T02:23:38;101545.63;;;12.16;46.71
33404;BME280;19751;40.274;18.268;2023-11-19T02:26:14;101533.50;;;12.12;46.59
33404;BME280;19751;40.274;18.268;2023-11-19T02:28:43;101535.72;;;12.09;46.26
33404;BME280;19751;40.274;18.268;2023-11-19T02:31:10;101543.00;;;12.08;46.66
33404;BME280;19751;40.274;18.268;2023-11-19T02:33:39;101553.78;;;12.08;46.87
33404;BME280;19751;40.274;18.268;2023-11-19T02:36:05;101551.28;;;12.07;46.94
33404;BME280;19751;40.274;18.268;2023-11-19T02:38:33;101552.97;;;12.08;46.91
33404;BME280;19751;40.274;18.268;2023-11-19T02:41:00;101556.69;;;12.07;47.21
33404;BME280;19751;40.274;18.268;2023-11-19T02:43:30;101568.47;;;12.06;47.07
33404;BME280;19751;40.274;18.268;2023-11-19T02:46:02;101569.31;;;12.06;47.24
33404;BME280;19751;40.274;18.268;2023-11-19T02:48:28;101552.28;;;12.06;47.65
33404;BME280;19751;40.274;18.268;2023-11-19T02:50:55;101551.63;;;12.04;48.23
33404;BME280;19751;40.274;18.268;2023-11-19T02:53:24;101552.00;;;12.01;48.51
33404;BME280;19751;40.274;18.268;2023-11-19T02:55:52;101544.06;;;11.99;48.56
33404;BME280;19751;40.274;18.268;2023-11-19T02:58:18;101541.53;;;11.98;49.27
33404;BME280;19751;40.274;18.268;2023-11-19T03:00:49;101543.59;;;11.96;49.76
33404;BME280;19751;40.274;18.268;2023-11-19T03:03:23;101544.97;;;11.91;50.17
33404;BME280;19751;40.274;18.268;2023-11-19T03:05:54;101547.19;;;11.88;50.23
33404;BME280;19751;40.274;18.268;2023-11-19T03:08:22;101567.94;;;11.87;49.75
33404;BME280;19751;40.274;18.268;2023-11-19T03:10:48;101569.31;;;11.83;49.19
33404;BME280;19751;40.274;18.268;2023-11-19T03:13:14;101574.53;;;11.85;49.29
33404;BME280;19751;40.274;18.268;2023-11-19T03:15:40;101585.81;;;11.88;48.94
33404;BME280;19751;40.274;18.268;2023-11-19T03:18:07;101582.09;;;11.89;48.96
33404;BME280;19751;40.274;18.268;2023-11-19T03:20:32;101595.44;;;11.91;48.65
33404;BME280;19751;40.274;18.268;2023-11-19T03:22:58;101586.31;;;11.92;48.70
33404;BME280;19751;40.274;18.268;2023-11-19T03:25:30;101583.59;;;11.92;48.89
33404;BME280;19751;40.274;18.268;2023-11-19T03:28:01;101577.53;;;11.90;48.79
33404;BME280;19751;40.274;18.268;2023-11-19T03:30:28;101562.19;;;11.90;49.06
33404;BME280;19751;40.274;18.268;2023-11-19T03:32:56;101559.84;;;11.87;49.18
33404;BME280;19751;40.274;18.268;2023-11-19T03:35:23;101549.19;;;11.86;49.20
33404;BME280;19751;40.274;18.268;2023-11-19T03:37:50;101549.69;;;11.81;49.33
33404;BME280;19751;40.274;18.268;2023-11-19T03:40:18;101555.63;;;11.85;49.38
33404;BME280;19751;40.274;18.268;2023-11-19T03:42:48;101553.75;;;11.85;49.41
33404;BME280;19751;40.274;18.268;2023-11-19T03:45:14;101568.47;;;11.83;49.49
33404;BME280;19751;40.274;18.268;2023-11-19T03:47:41;101571.66;;;11.86;49.63
33404;BME280;19751;40.274;18.268;2023-11-19T03:50:07;101575.34;;;11.85;49.85
33404;BME280;19751;40.274;18.268;2023-11-19T03:52:36;101570.97;;;11.84;50.35
33404;BME280;19751;40.274;18.268;2023-11-19T03:55:02;101577.06;;;11.86;50.96
33404;BME280;19751;40.274;18.268;2023-11-19T03:57:31;101564.56;;;11.85;51.36
33404;BME280;19751;40.274;18.268;2023-11-19T03:59:57;101570.78;;;11.86;51.57
33404;BME280;19751;40.274;18.268;2023-11-19T04:02:23;101573.69;;;11.84;51.80
33404;BME280;19751;40.274;18.268;2023-11-19T04:04:53;101576.69;;;11.81;52.33
33404;BME280;19751;40.274;18.268;2023-11-19T04:07:23;101573.50;;;11.78;52.93
33404;BME280;19751;40.274;18.268;2023-11-19T04:09:49;101571.69;;;11.78;53.00
33404;BME280;19751;40.274;18.268;2023-11-19T04:12:15;101558.19;;;11.78;53.27
33404;BME280;19751;40.274;18.268;2023-11-19T04:14:41;101570.66;;;11.79;53.62
33404;BME280;19751;40.274;18.268;2023-11-19T04:17:06;101562.38;;;11.81;53.58
33404;BME280;19751;40.274;18.268;2023-11-19T04:19:32;101572.31;;;11.80;53.16
33404;BME280;19751;40.274;18.268;2023-11-19T04:22:01;101568.84;;;11.72;53.63
33404;BME280;19751;40.274;18.268;2023-11-19T04:24:27;101566.47;;;11.68;53.84
33404;BME280;19751;40.274;18.268;2023-11-19T04:26:53;101568.34;;;11.68;54.16
33404;BME280;19751;40.274;18.268;2023-11-19T04:29:22;101575.59;;;11.67;54.07
33404;BME280;19751;40.274;18.268;2023-11-19T04:31:47;101562.94;;;11.68;54.20
33404;BME280;19751;40.274;18.268;2023-11-19T04:34:13;101569.19;;;11.68;54.17
33404;BME280;19751;40.274;18.268;2023-11-19T04:36:39;101578.97;;;11.69;54.49
33404;BME280;19751;40.274;18.268;2023-11-19T04:39:07;101576.75;;;11.73;54.85
33404;BME280;19751;40.274;18.268;2023-11-19T04:41:50;101581.50;;;11.71;54.80
33404;BME280;19751;40.274;18.268;2023-11-19T04:44:18;101582.84;;;11.67;54.92
33404;BME280;19751;40.274;18.268;2023-11-19T04:46:44;101584.72;;;11.66;55.36
33404;BME280;19751;40.274;18.268;2023-11-19T04:49:11;101582.38;;;11.63;55.55
33404;BME280;19751;40.274;18.268;2023-11-19T04:51:40;101582.03;;;11.66;55.44
33404;BME280;19751;40.274;18.268;2023-11-19T04:54:12;101580.81;;;11.69;55.63
33404;BME280;19751;40.274;18.268;2023-11-19T04:56:38;101586.19;;;11.69;56.02
33404;BME280;19751;40.274;18.268;2023-11-19T04:59:11;101583.19;;;11.64;56.81
33404;BME280;19751;40.274;18.268;2023-11-19T05:01:36;101580.50;;;11.64;57.06
33404;BME280;19751;40.274;18.268;2023-11-19T05:04:02;101575.28;;;11.62;57.46
33404;BME280;19751;40.274;18.268;2023-11-19T05:06:31;101580.69;;;11.62;57.52
33404;BME280;19751;40.274;18.268;2023-11-19T05:08:59;101572.75;;;11.61;57.63
33404;BME280;19751;40.274;18.268;2023-11-19T05:11:32;101570.25;;;11.59;57.53
33404;BME280;19751;40.274;18.268;2023-11-19T05:14:02;101576.31;;;11.61;57.76
33404;BME280;19751;40.274;18.268;2023-11-19T05:16:29;101568.22;;;11.61;57.67
33404;BME280;19751;40.274;18.268;2023-11-19T05:18:55;101576.97;;;11.63;57.52
33404;BME280;19751;40.274;18.268;2023-11-19T05:21:21;101578.00;;;11.62;57.32
33404;BME280;19751;40.274;18.268;2023-11-19T05:23:46;101568.69;;;11.65;56.97
33404;BME280;19751;40.274;18.268;2023-11-19T05:26:19;101562.28;;;11.66;57.19
33404;BME280;19751;40.274;18.268;2023-11-19T05:28:45;101574.75;;;11.67;57.34
33404;BME280;19751;40.274;18.268;2023-11-19T05:31:17;101569.38;;;11.67;57.87
33404;BME280;19751;40.274;18.268;2023-11-19T05:33:45;101568.19;;;11.69;58.40
33404;BME280;19751;40.274;18.268;2023-11-19T05:36:11;101555.03;;;11.66;58.36
33404;BME280;19751;40.274;18.268;2023-11-19T05:38:38;101567.69;;;11.66;58.56
33404;BME280;19751;40.274;18.268;2023-11-19T05:41:04;101565.69;;;11.60;58.43
33404;BME280;19751;40.274;18.268;2023-11-19T05:43:30;101575.13;;;11.56;58.55
33404;BME280;19751;40.274;18.268;2023-11-19T05:45:56;101579.50;;;11.57;59.16
33404;BME280;19751;40.274;18.268;2023-11-19T05:48:22;101580.84;;;11.61;59.14
33404;BME280;19751;40.274;18.268;2023-11-19T05:50:50;101584.56;;;11.60;58.97
33404;BME280;19751;40.274;18.268;2023-11-19T05:53:16;101580.69;;;11.62;59.00
33404;BME280;19751;40.274;18.268;2023-11-19T05:55:42;101596.72;;;11.56;58.25
33404;BME280;19751;40.274;18.268;2023-11-19T05:58:24;101591.06;;;11.34;59.11
33404;BME280;19751;40.274;18.268;2023-11-19T06:00:59;101582.41;;;11.08;60.58
33404;BME280;19751;40.274;18.268;2023-11-19T06:03:28;101591.03;;;10.87;62.58
33404;BME280;19751;40.274;18.268;2023-11-19T06:05:56;101582.78;;;10.72;64.26
33404;BME280;19751;40.274;18.268;2023-11-19T06:08:22;101586.19;;;10.58;65.76
33404;BME280;19751;40.274;18.268;2023-11-19T06:10:48;101589.19;;;10.47;67.20
33404;BME280;19751;40.274;18.268;2023-11-19T06:13:16;101600.63;;;10.40;68.64
33404;BME280;19751;40.274;18.268;2023-11-19T06:15:43;101615.09;;;10.39;69.69
33404;BME280;19751;40.274;18.268;2023-11-19T06:18:08;101615.44;;;10.36;70.72
33404;BME280;19751;40.274;18.268;2023-11-19T06:20:35;101631.44;;;10.38;71.26
33404;BME280;19751;40.274;18.268;2023-11-19T06:23:06;101638.00;;;10.35;72.23
33404;BME280;19751;40.274;18.268;2023-11-19T06:25:34;101636.31;;;10.26;73.44
33404;BME280;19751;40.274;18.268;2023-11-19T06:28:06;101628.69;;;10.21;74.37
33404;BME280;19751;40.274;18.268;2023-11-19T06:30:31;101623.47;;;10.12;76.16
33404;BME280;19751;40.274;18.268;2023-11-19T06:32:58;101612.84;;;10.10;77.36
33404;BME280;19751;40.274;18.268;2023-11-19T06:35:24;101616.38;;;10.11;77.98
33404;BME280;19751;40.274;18.268;2023-11-19T06:37:49;101615.38;;;10.12;78.46
33404;BME280;19751;40.274;18.268;2023-11-19T06:40:15;101627.66;;;10.14;78.83
33404;BME280;19751;40.274;18.268;2023-11-19T06:42:41;101626.53;;;10.25;78.36
33404;BME280;19751;40.274;18.268;2023-11-19T06:45:07;101629.78;;;10.37;77.26
33404;BME280;19751;40.274;18.268;2023-11-19T06:47:33;101633.31;;;10.45;77.00
33404;BME280;19751;40.274;18.268;2023-11-19T06:49:59;101641.22;;;10.55;75.63
33404;BME280;19751;40.274;18.268;2023-11-19T06:52:24;101624.03;;;10.64;75.28
33404;BME280;19751;40.274;18.268;2023-11-19T06:54:53;101625.91;;;10.64;75.39
33404;BME280;19751;40.274;18.268;2023-11-19T06:57:19;101626.75;;;10.64;75.75
33404;BME280;19751;40.274;18.268;2023-11-19T06:59:45;101623.22;;;10.64;75.93
33404;BME280;19751;40.274;18.268;2023-11-19T07:02:11;101618.84;;;10.63;77.08
33404;BME280;19751;40.274;18.268;2023-11-19T07:04:37;101614.94;;;10.65;77.98
33404;BME280;19751;40.274;18.268;2023-11-19T07:07:02;101613.94;;;10.75;77.67
33404;BME280;19751;40.274;18.268;2023-11-19T07:09:30;101615.44;;;10.85;77.71
33404;BME280;19751;40.274;18.268;2023-11-19T07:11:56;101627.22;;;11.01;77.77
33404;BME280;19751;40.274;18.268;2023-11-19T07:14:22;101638.19;;;11.07;77.73
33404;BME280;19751;40.274;18.268;2023-11-19T07:16:51;101639.00;;;11.16;77.88
33404;BME280;19751;40.274;18.268;2023-11-19T07:19:17;101626.19;;;11.18;77.49
33404;BME280;19751;40.274;18.268;2023-11-19T07:21:45;101627.84;;;11.19;77.14
33404;BME280;19751;40.274;18.268;2023-11-19T07:24:13;101619.13;;;11.17;77.20
33404;BME280;19751;40.274;18.268;2023-11-19T07:26:46;101610.53;;;11.13;77.93
33404;BME280;19751;40.274;18.268;2023-11-19T07:29:17;101608.00;;;11.12;79.19
33404;BME280;19751;40.274;18.268;2023-11-19T07:31:45;101623.47;;;11.18;79.12
33404;BME280;19751;40.274;18.268;2023-11-19T07:34:14;101625.31;;;11.26;77.80
33404;BME280;19751;40.274;18.268;2023-11-19T07:36:42;101636.09;;;11.34;77.47
33404;BME280;19751;40.274;18.268;2023-11-19T07:39:08;101638.59;;;11.35;77.49
33404;BME280;19751;40.274;18.268;2023-11-19T07:41:34;101646.19;;;11.40;76.60
33404;BME280;19751;40.274;18.268;2023-11-19T07:44:00;101643.66;;;11.47;76.67
33404;BME280;19751;40.274;18.268;2023-11-19T07:46:26;101648.19;;;11.54;75.77
33404;BME280;19751;40.274;18.268;2023-11-19T07:48:52;101656.06;;;11.64;75.49
33404;BME280;19751;40.274;18.268;2023-11-19T07:51:18;101656.34;;;11.77;75.29
33404;BME280;19751;40.274;18.268;2023-11-19T07:53:46;101645.88;;;11.82;75.28
33404;BME280;19751;40.274;18.268;2023-11-19T07:56:14;101647.91;;;11.88;75.28
33404;BME280;19751;40.274;18.268;2023-11-19T07:58:42;101652.94;;;11.91;75.51
33404;BME280;19751;40.274;18.268;2023-11-19T08:01:07;101654.44;;;11.94;73.73
33404;BME280;19751;40.274;18.268;2023-11-19T08:03:33;101662.88;;;11.99;73.56
33404;BME280;19751;40.274;18.268;2023-11-19T08:06:00;101653.53;;;12.10;72.57
33404;BME280;19751;40.274;18.268;2023-11-19T08:08:28;101661.59;;;12.18;68.54
33404;BME280;19751;40.274;18.268;2023-11-19T08:10:58;101657.16;;;12.25;68.52
33404;BME280;19751;40.274;18.268;2023-11-19T08:13:24;101646.31;;;12.33;69.20
33404;BME280;19751;40.274;18.268;2023-11-19T08:15:50;101641.13;;;12.47;67.67
33404;BME280;19751;40.274;18.268;2023-11-19T08:18:16;101640.38;;;12.61;62.19
33404;BME280;19751;40.274;18.268;2023-11-19T08:20:46;101640.59;;;12.74;59.99
33404;BME280;19751;40.274;18.268;2023-11-19T08:23:14;101642.22;;;12.83;56.81
33404;BME280;19751;40.274;18.268;2023-11-19T08:25:39;101651.28;;;12.90;56.06
33404;BME280;19751;40.274;18.268;2023-11-19T08:28:12;101653.06;;;12.98;56.09
33404;BME280;19751;40.274;18.268;2023-11-19T08:30:40;101660.25;;;13.06;56.17
33404;BME280;19751;40.274;18.268;2023-11-19T08:33:05;101656.97;;;13.10;54.46
33404;BME280;19751;40.274;18.268;2023-11-19T08:35:32;101661.00;;;13.14;53.68
33404;BME280;19751;40.274;18.268;2023-11-19T08:38:04;101660.28;;;13.21;53.95
33404;BME280;19751;40.274;18.268;2023-11-19T08:40:30;101658.56;;;13.28;53.65
33404;BME280;19751;40.274;18.268;2023-11-19T08:42:58;101655.31;;;13.32;52.40
33404;BME280;19751;40.274;18.268;2023-11-19T08:45:24;101663.22;;;13.34;53.06
33404;BME280;19751;40.274;18.268;2023-11-19T08:47:50;101659.97;;;13.38;53.95
33404;BME280;19751;40.274;18.268;2023-11-19T08:50:16;101661.47;;;13.41;54.58
33404;BME280;19751;40.274;18.268;2023-11-19T08:52:41;101657.53;;;13.43;54.22
33404;BME280;19751;40.274;18.268;2023-11-19T08:55:07;101661.53;;;13.48;54.18
33404;BME280;19751;40.274;18.268;2023-11-19T08:57:35;101661.19;;;13.51;54.52
33404;BME280;19751;40.274;18.268;2023-11-19T09:00:01;101661.84;;;13.53;54.96
33404;BME280;19751;40.274;18.268;2023-11-19T09:02:27;101661.44;;;13.56;55.34
33404;BME280;19751;40.274;18.268;2023-11-19T09:04:53;101656.72;;;13.58;53.44
33404;BME280;19751;40.274;18.268;2023-11-19T09:07:19;101651.75;;;13.61;53.14
33404;BME280;19751;40.274;18.268;2023-11-19T09:09:44;101653.22;;;13.64;52.60
33404;BME280;19751;40.274;18.268;2023-11-19T09:12:11;101655.56;;;13.67;51.25
33404;BME280;19751;40.274;18.268;2023-11-19T09:14:36;101663.69;;;13.67;50.87
33404;BME280;19751;40.274;18.268;2023-11-19T09:17:02;101672.50;;;13.69;51.50
33404;BME280;19751;40.274;18.268;2023-11-19T09:19:28;101664.63;;;13.74;51.85
33404;BME280;19751;40.274;18.268;2023-11-19T09:21:53;101649.88;;;13.77;52.18
33404;BME280;19751;40.274;18.268;2023-11-19T09:24:24;101644.91;;;13.80;52.58
33404;BME280;19751;40.274;18.268;2023-11-19T09:26:50;101638.94;;;13.85;52.43
33404;BME280;19751;40.274;18.268;2023-11-19T09:29:18;101657.34;;;13.89;52.46
33404;BME280;19751;40.274;18.268;2023-11-19T09:31:44;101640.06;;;13.90;52.16
33404;BME280;19751;40.274;18.268;2023-11-19T09:34:10;101644.44;;;13.91;52.36
33404;BME280;19751;40.274;18.268;2023-11-19T09:36:36;101636.13;;;13.93;53.08
33404;BME280;19751;40.274;18.268;2023-11-19T09:39:01;101635.94;;;13.95;53.13
33404;BME280;19751;40.274;18.268;2023-11-19T09:41:27;101629.50;;;13.96;52.68
33404;BME280;19751;40.274;18.268;2023-11-19T09:43:54;101631.81;;;13.99;52.53
33404;BME280;19751;40.274;18.268;2023-11-19T09:46:21;101631.63;;;14.00;52.77
33404;BME280;19751;40.274;18.268;2023-11-19T09:48:52;101648.53;;;14.02;53.21
33404;BME280;19751;40.274;18.268;2023-11-19T09:51:20;101632.09;;;14.04;52.66
33404;BME280;19751;40.274;18.268;2023-11-19T09:53:48;101623.75;;;14.05;53.10
33404;BME280;19751;40.274;18.268;2023-11-19T09:56:14;101607.34;;;14.07;53.55
33404;BME280;19751;40.274;18.268;2023-11-19T09:58:42;101616.94;;;14.09;53.58
33404;BME280;19751;40.274;18.268;2023-11-19T10:01:08;101606.94;;;14.10;53.89
33404;BME280;19751;40.274;18.268;2023-11-19T10:03:37;101601.13;;;14.13;54.43
33404;BME280;19751;40.274;18.268;2023-11-19T10:06:08;101594.69;;;14.14;54.38
33404;BME280;19751;40.274;18.268;2023-11-19T10:08:37;101610.56;;;14.17;54.51
33404;BME280;19751;40.274;18.268;2023-11-19T10:11:05;101608.88;;;14.16;54.49
33404;BME280;19751;40.274;18.268;2023-11-19T10:13:31;101607.84;;;14.17;54.33
33404;BME280;19751;40.274;18.268;2023-11-19T10:15:57;101608.31;;;14.21;55.32
33404;BME280;19751;40.274;18.268;2023-11-19T10:18:26;101598.97;;;14.23;55.34
33404;BME280;19751;40.274;18.268;2023-11-19T10:20:52;101599.44;;;14.27;56.03
33404;BME280;19751;40.274;18.268;2023-11-19T10:23:19;101589.41;;;14.27;55.20
33404;BME280;19751;40.274;18.268;2023-11-19T10:25:47;101599.84;;;14.30;56.02
33404;BME280;19751;40.274;18.268;2023-11-19T10:28:15;101604.06;;;14.33;56.85
33404;BME280;19751;40.274;18.268;2023-11-19T10:30:44;101612.84;;;14.35;56.92
33404;BME280;19751;40.274;18.268;2023-11-19T10:33:13;101618.44;;;14.33;56.06
33404;BME280;19751;40.274;18.268;2023-11-19T10:35:56;101618.44;;;14.33;56.35
33404;BME280;19751;40.274;18.268;2023-11-19T10:38:23;101614.69;;;14.34;57.12
33404;BME280;19751;40.274;18.268;2023-11-19T10:40:52;101617.41;;;14.34;56.83
33404;BME280;19751;40.274;18.268;2023-11-19T10:43:23;101617.22;;;14.36;57.40
33404;BME280;19751;40.274;18.268;2023-11-19T10:45:53;101620.78;;;14.36;56.96
33404;BME280;19751;40.274;18.268;2023-11-19T10:48:18;101616.00;;;14.38;57.55
33404;BME280;19751;40.274;18.268;2023-11-19T10:50:49;101623.13;;;14.39;58.91
33404;BME280;19751;40.274;18.268;2023-11-19T10:53:18;101627.94;;;14.44;59.76
33404;BME280;19751;40.274;18.268;2023-11-19T10:55:47;101620.66;;;14.45;58.71
33404;BME280;19751;40.274;18.268;2023-11-19T10:58:15;101634.22;;;14.45;58.12
33404;BME280;19751;40.274;18.268;2023-11-19T11:00:59;101637.97;;;14.43;57.61
33404;BME280;19751;40.274;18.268;2023-11-19T11:03:32;101631.03;;;14.41;56.86
33404;BME280;19751;40.274;18.268;2023-11-19T11:06:03;101632.25;;;14.38;57.48
33404;BME280;19751;40.274;18.268;2023-11-19T11:08:30;101638.34;;;14.40;58.59
33404;BME280;19751;40.274;18.268;2023-11-19T11:10:56;101650.00;;;14.41;58.89
33404;BME280;19751;40.274;18.268;2023-11-19T11:13:24;101630.84;;;14.42;58.58
33404;BME280;19751;40.274;18.268;2023-11-19T11:15:53;101633.53;;;14.42;58.74
33404;BME280;19751;40.274;18.268;2023-11-19T11:18:21;101631.50;;;14.45;59.70
33404;BME280;19751;40.274;18.268;2023-11-19T11:21:00;101642.13;;;14.46;61.16
33404;BME280;19751;40.274;18.268;2023-11-19T11:34:37;101615.19;;;14.59;62.50
33404;BME280;19751;40.274;18.268;2023-11-19T11:39:36;101621.06;;;14.63;64.05
33404;BME280;19751;40.274;18.268;2023-11-19T11:50:18;101595.81;;;14.62;64.34
33404;BME280;19751;40.274;18.268;2023-11-19T11:53:13;101588.06;;;14.59;63.16
33404;BME280;19751;40.274;18.268;2023-11-19T11:58:08;101595.56;;;14.57;63.64
33404;BME280;19751;40.274;18.268;2023-11-19T12:00:39;101579.94;;;14.59;64.52
33404;BME280;19751;40.274;18.268;2023-11-19T12:03:07;101579.09;;;14.59;64.96
33404;BME280;19751;40.274;18.268;2023-11-19T12:05:38;101589.56;;;14.62;65.37
33404;BME280;19751;40.274;18.268;2023-11-19T12:08:06;101582.25;;;14.62;65.11
33404;BME280;19751;40.274;18.268;2023-11-19T12:13:13;101579.38;;;14.64;63.46
33404;BME280;19751;40.274;18.268;2023-11-19T12:18:32;101585.19;;;14.61;64.35
33404;BME280;19751;40.274;18.268;2023-11-19T12:20:59;101588.06;;;14.59;65.15
33404;BME280;19751;40.274;18.268;2023-11-19T12:23:31;101579.09;;;14.59;65.86
33404;BME280;19751;40.274;18.268;2023-11-19T12:25:57;101573.03;;;14.57;67.33
33404;BME280;19751;40.274;18.268;2023-11-19T12:28:23;101577.44;;;14.58;67.29
33404;BME280;19751;40.274;18.268;2023-11-19T12:30:53;101576.38;;;14.59;67.38
33404;BME280;19751;40.274;18.268;2023-11-19T12:33:19;101567.25;;;14.60;66.71
33404;BME280;19751;40.274;18.268;2023-11-19T12:35:47;101563.66;;;14.59;66.93
33404;BME280;19751;40.274;18.268;2023-11-19T12:40:44;101555.53;;;14.59;67.21
33404;BME280;19751;40.274;18.268;2023-11-19T12:43:10;101540.13;;;14.60;68.79
33404;BME280;19751;40.274;18.268;2023-11-19T12:45:36;101539.91;;;14.61;69.52
33404;BME280;19751;40.274;18.268;2023-11-19T12:48:05;101536.16;;;14.62;71.22
33404;BME280;19751;40.274;18.268;2023-11-19T12:50:54;101536.00;;;14.64;71.52
33404;BME280;19751;40.274;18.268;2023-11-19T12:53:21;101540.53;;;14.63;70.48
33404;BME280;19751;40.274;18.268;2023-11-19T12:55:47;101532.25;;;14.65;71.20
33404;BME280;19751;40.274;18.268;2023-11-19T12:58:29;101537.84;;;14.63;71.09
33404;BME280;19751;40.274;18.268;2023-11-19T13:01:07;101521.56;;;14.63;71.38
33404;BME280;19751;40.274;18.268;2023-11-19T13:03:33;101520.72;;;14.63;70.47
33404;BME280;19751;40.274;18.268;2023-11-19T13:06:07;101524.69;;;14.60;69.19
33404;BME280;19751;40.274;18.268;2023-11-19T13:08:49;101532.84;;;14.60;69.81
33404;BME280;19751;40.274;18.268;2023-11-19T13:11:37;101531.78;;;14.61;70.72
33404;BME280;19751;40.274;18.268;2023-11-19T13:14:06;101531.78;;;14.61;71.53
33404;BME280;19751;40.274;18.268;2023-11-19T13:16:36;101531.13;;;14.59;72.23